Las Vegas, Nevada
Traffic Map
Current Weather Conditions
Las Vegas, Nevada
Clear
Clear
58°
Feels Like: 58°
Wind Chill: 58° Ceiling: Unl
Heat Index: 58° Visibility: 10mi
Dew Point: 28° Wind: 5mph
Humidity: 32% Direction: 270° (W)
Pressure: 30.25in Gusts: 0mph
Raw Report DataKLAS 100556Z 27004KT 10SM CLR 14/M02 A3025 RMK AO2 SLP235 T01441022 10222 20139 53006
Traffic Incident Summary
Active as of:
Severity:
Category:
InformationThere was an issue retrieving the traffic information for this location. Please try a different location or try again shortly.
Advertisements
Track Severe Weather on mobile